TAF and METAR

Decoding for American and Canadian METARs and TAFs is not fully implemented.
No METAR available for Juan Manuel Gálvez International Airport

TAF for Juan Manuel Gálvez International Airport

TAF MHRO 311040Z 3112/0112 09014KT 9999 SCT020TCU SCT080 TX31/3120Z TN27/0112Z TEMPO 3121/0103 5000 RA SCT022CB BKN080 BECMG 0103/0105 7000 -RA BECMG 0105/0107 9999 NSW SCT020TCU SCT080
Report created 31. mai 12:40

between 31. mai 14:00 - 1. mai 14:00

wind 14 knots from E (090°) visibility > 10km scattered clouds (~50% cover) at 2000 feet of type towering cumulus scattered clouds (~50% cover) at 8000 feet Max temperature 31° expected today at around 22 o'clock Min temperature 27° expected today at around 14 o'clock

temporarily between 31. mai 23:00 - 1. mai 05:00

visibility 5000 meters rain scattered clouds (~50% cover) at 2200 feet of type cumulonimbus broken clouds (~75% cover) at 8000 feet

becoming between 1. mai 05:00 - 1. mai 07:00

visibility 7000 meters light rain

becoming between 1. mai 07:00 - 1. mai 09:00

visibility > 10km scattered clouds (~50% cover) at 2000 feet of type towering cumulus scattered clouds (~50% cover) at 8000 feet
Juan Manuel Gálvez International Airport in Honduras at 5m

Latest 5 airports